sensor_id;sensor_type;location;lat;lon;timestamp;temperature;humidity
37204;DHT22;23098;48.054;10.636;2022-12-29T00:01:35;3.60;99.90
37204;DHT22;23098;48.054;10.636;2022-12-29T00:04:01;3.70;99.90
37204;DHT22;23098;48.054;10.636;2022-12-29T00:06:27;3.60;99.90
37204;DHT22;23098;48.054;10.636;2022-12-29T00:08:54;3.60;99.90
37204;DHT22;23098;48.054;10.636;2022-12-29T00:11:23;3.60;99.90
37204;DHT22;23098;48.054;10.636;2022-12-29T00:13:50;3.70;99.90
37204;DHT22;23098;48.054;10.636;2022-12-29T00:16:35;3.70;99.90
37204;DHT22;23098;48.054;10.636;2022-12-29T00:19:02;3.70;99.90
37204;DHT22;23098;48.054;10.636;2022-12-29T00:21:28;3.70;99.90
37204;DHT22;23098;48.054;10.636;2022-12-29T00:24:18;3.80;99.90
37204;DHT22;23098;48.054;10.636;2022-12-29T00:29:48;3.80;99.90
37204;DHT22;23098;48.054;10.636;2022-12-29T00:32:33;3.80;99.90
37204;DHT22;23098;48.054;10.636;2022-12-29T00:35:26;3.80;99.90
37204;DHT22;23098;48.054;10.636;2022-12-29T00:37:52;3.90;99.90
37204;DHT22;23098;48.054;10.636;2022-12-29T00:40:37;3.90;99.90
37204;DHT22;23098;48.054;10.636;2022-12-29T00:43:21;3.90;99.90
37204;DHT22;23098;48.054;10.636;2022-12-29T00:46:05;3.90;99.90
37204;DHT22;23098;48.054;10.636;2022-12-29T00:48:31;3.90;99.90
37204;DHT22;23098;48.054;10.636;2022-12-29T00:51:15;4.00;99.90
37204;DHT22;23098;48.054;10.636;2022-12-29T00:53:41;4.00;99.90
37204;DHT22;23098;48.054;10.636;2022-12-29T00:56:07;4.00;99.90
37204;DHT22;23098;48.054;10.636;2022-12-29T00:58:32;4.00;99.90
37204;DHT22;23098;48.054;10.636;2022-12-29T01:01:06;3.90;99.90
37204;DHT22;23098;48.054;10.636;2022-12-29T01:03:33;3.90;99.90
37204;DHT22;23098;48.054;10.636;2022-12-29T01:06:07;3.80;99.90
37204;DHT22;23098;48.054;10.636;2022-12-29T01:08:33;3.80;99.90
37204;DHT22;23098;48.054;10.636;2022-12-29T01:11:01;3.70;99.90
37204;DHT22;23098;48.054;10.636;2022-12-29T01:13:26;3.60;99.90
37204;DHT22;23098;48.054;10.636;2022-12-29T01:15:53;3.60;99.90
37204;DHT22;23098;48.054;10.636;2022-12-29T01:18:19;3.70;99.90
37204;DHT22;23098;48.054;10.636;2022-12-29T01:20:45;3.70;99.90
37204;DHT22;23098;48.054;10.636;2022-12-29T01:23:10;3.70;99.90
37204;DHT22;23098;48.054;10.636;2022-12-29T01:25:37;3.70;99.90
37204;DHT22;23098;48.054;10.636;2022-12-29T01:28:05;3.70;99.90
37204;DHT22;23098;48.054;10.636;2022-12-29T01:30:33;3.70;99.90
37204;DHT22;23098;48.054;10.636;2022-12-29T01:32:59;3.70;99.90
37204;DHT22;23098;48.054;10.636;2022-12-29T01:35:25;3.70;99.90
37204;DHT22;23098;48.054;10.636;2022-12-29T01:37:58;3.60;99.90
37204;DHT22;23098;48.054;10.636;2022-12-29T01:40:43;3.60;99.90
37204;DHT22;23098;48.054;10.636;2022-12-29T01:43:12;3.70;99.90
37204;DHT22;23098;48.054;10.636;2022-12-29T01:45:48;3.80;99.90
37204;DHT22;23098;48.054;10.636;2022-12-29T01:48:15;3.90;99.90
37204;DHT22;23098;48.054;10.636;2022-12-29T01:50:51;4.00;99.90
37204;DHT22;23098;48.054;10.636;2022-12-29T01:53:21;4.00;99.90
37204;DHT22;23098;48.054;10.636;2022-12-29T01:55:54;4.10;99.90
37204;DHT22;23098;48.054;10.636;2022-12-29T01:58:22;4.10;99.90
37204;DHT22;23098;48.054;10.636;2022-12-29T02:00:50;4.20;99.90
37204;DHT22;23098;48.054;10.636;2022-12-29T02:03:17;4.20;99.90
37204;DHT22;23098;48.054;10.636;2022-12-29T02:05:58;4.30;99.90
37204;DHT22;23098;48.054;10.636;2022-12-29T02:08:26;4.30;99.90
37204;DHT22;23098;48.054;10.636;2022-12-29T02:10:53;4.40;99.90
37204;DHT22;23098;48.054;10.636;2022-12-29T02:13:19;4.40;99.90
37204;DHT22;23098;48.054;10.636;2022-12-29T02:21:35;4.50;99.90
37204;DHT22;23098;48.054;10.636;2022-12-29T02:24:25;4.50;99.90
37204;DHT22;23098;48.054;10.636;2022-12-29T02:40:08;4.60;99.90
37204;DHT22;23098;48.054;10.636;2022-12-29T02:42:46;4.70;99.90
37204;DHT22;23098;48.054;10.636;2022-12-29T02:45:31;4.70;99.90
37204;DHT22;23098;48.054;10.636;2022-12-29T02:48:21;4.70;99.90
37204;DHT22;23098;48.054;10.636;2022-12-29T02:51:03;4.80;99.90
37204;DHT22;23098;48.054;10.636;2022-12-29T02:53:33;4.80;99.90
37204;DHT22;23098;48.054;10.636;2022-12-29T02:56:20;4.90;99.90
37204;DHT22;23098;48.054;10.636;2022-12-29T02:58:45;4.90;99.90
37204;DHT22;23098;48.054;10.636;2022-12-29T03:01:29;5.00;99.90
37204;DHT22;23098;48.054;10.636;2022-12-29T03:04:03;5.00;99.90
37204;DHT22;23098;48.054;10.636;2022-12-29T03:06:46;5.10;99.90
37204;DHT22;23098;48.054;10.636;2022-12-29T03:09:28;5.20;99.90
37204;DHT22;23098;48.054;10.636;2022-12-29T03:12:14;5.10;99.90
37204;DHT22;23098;48.054;10.636;2022-12-29T03:14:56;5.20;99.90
37204;DHT22;23098;48.054;10.636;2022-12-29T03:19:00;5.20;99.90
37204;DHT22;23098;48.054;10.636;2022-12-29T03:23:42;5.30;99.90
37204;DHT22;23098;48.054;10.636;2022-12-29T03:26:11;5.30;99.90
37204;DHT22;23098;48.054;10.636;2022-12-29T03:28:46;5.30;99.90
37204;DHT22;23098;48.054;10.636;2022-12-29T03:31:14;5.30;99.90
37204;DHT22;23098;48.054;10.636;2022-12-29T03:33:41;5.30;99.90
37204;DHT22;23098;48.054;10.636;2022-12-29T03:36:11;5.20;99.90
37204;DHT22;23098;48.054;10.636;2022-12-29T03:38:50;5.30;99.90
37204;DHT22;23098;48.054;10.636;2022-12-29T03:41:23;5.30;99.90
37204;DHT22;23098;48.054;10.636;2022-12-29T03:43:49;5.30;99.90
37204;DHT22;23098;48.054;10.636;2022-12-29T03:46:14;5.30;99.90
37204;DHT22;23098;48.054;10.636;2022-12-29T03:48:40;5.30;99.90
37204;DHT22;23098;48.054;10.636;2022-12-29T03:51:05;5.40;99.90
37204;DHT22;23098;48.054;10.636;2022-12-29T03:53:31;5.40;99.90
37204;DHT22;23098;48.054;10.636;2022-12-29T03:55:56;5.40;99.90
37204;DHT22;23098;48.054;10.636;2022-12-29T03:58:22;5.40;99.90
37204;DHT22;23098;48.054;10.636;2022-12-29T04:00:47;5.50;99.90
37204;DHT22;23098;48.054;10.636;2022-12-29T04:03:13;5.50;99.90
37204;DHT22;23098;48.054;10.636;2022-12-29T04:05:38;5.60;99.90
37204;DHT22;23098;48.054;10.636;2022-12-29T04:08:04;5.70;99.90
37204;DHT22;23098;48.054;10.636;2022-12-29T04:10:30;5.60;99.90
37204;DHT22;23098;48.054;10.636;2022-12-29T04:12:55;5.60;99.90
37204;DHT22;23098;48.054;10.636;2022-12-29T04:15:21;5.60;99.90
37204;DHT22;23098;48.054;10.636;2022-12-29T04:17:46;5.60;99.90
37204;DHT22;23098;48.054;10.636;2022-12-29T04:20:12;5.60;99.90
37204;DHT22;23098;48.054;10.636;2022-12-29T04:23:03;5.60;99.90
37204;DHT22;23098;48.054;10.636;2022-12-29T04:25:30;5.60;99.90
37204;DHT22;23098;48.054;10.636;2022-12-29T04:27:56;5.70;99.90
37204;DHT22;23098;48.054;10.636;2022-12-29T04:30:22;5.60;99.90
37204;DHT22;23098;48.054;10.636;2022-12-29T04:32:47;5.50;99.90
37204;DHT22;23098;48.054;10.636;2022-12-29T04:35:13;5.50;99.90
37204;DHT22;23098;48.054;10.636;2022-12-29T04:37:38;5.50;99.90
37204;DHT22;23098;48.054;10.636;2022-12-29T04:40:04;5.50;99.90
37204;DHT22;23098;48.054;10.636;2022-12-29T04:42:30;5.70;99.90
37204;DHT22;23098;48.054;10.636;2022-12-29T04:44:55;6.00;99.90
37204;DHT22;23098;48.054;10.636;2022-12-29T04:47:21;6.20;99.90
37204;DHT22;23098;48.054;10.636;2022-12-29T04:49:46;6.40;99.90
37204;DHT22;23098;48.054;10.636;2022-12-29T04:52:12;6.40;99.90
37204;DHT22;23098;48.054;10.636;2022-12-29T04:54:38;6.50;99.90
37204;DHT22;23098;48.054;10.636;2022-12-29T04:57:05;6.50;99.90
37204;DHT22;23098;48.054;10.636;2022-12-29T04:59:30;6.80;99.90
37204;DHT22;23098;48.054;10.636;2022-12-29T05:01:56;7.10;99.60
37204;DHT22;23098;48.054;10.636;2022-12-29T05:04:21;7.40;99.00
37204;DHT22;23098;48.054;10.636;2022-12-29T05:06:47;7.70;98.30
37204;DHT22;23098;48.054;10.636;2022-12-29T05:09:13;8.20;96.70
37204;DHT22;23098;48.054;10.636;2022-12-29T05:11:38;8.40;96.30
37204;DHT22;23098;48.054;10.636;2022-12-29T05:14:04;8.60;95.60
37204;DHT22;23098;48.054;10.636;2022-12-29T05:16:29;8.70;95.40
37204;DHT22;23098;48.054;10.636;2022-12-29T05:18:55;8.90;95.00
37204;DHT22;23098;48.054;10.636;2022-12-29T05:21:21;8.90;95.20
37204;DHT22;23098;48.054;10.636;2022-12-29T05:23:46;8.90;95.00
37204;DHT22;23098;48.054;10.636;2022-12-29T05:26:12;8.80;95.20
37204;DHT22;23098;48.054;10.636;2022-12-29T05:28:37;8.80;95.50
37204;DHT22;23098;48.054;10.636;2022-12-29T05:31:03;8.90;95.30
37204;DHT22;23098;48.054;10.636;2022-12-29T05:33:28;8.90;95.50
37204;DHT22;23098;48.054;10.636;2022-12-29T05:35:54;8.90;95.50
37204;DHT22;23098;48.054;10.636;2022-12-29T05:38:19;8.80;95.60
37204;DHT22;23098;48.054;10.636;2022-12-29T05:40:45;8.70;95.60
37204;DHT22;23098;48.054;10.636;2022-12-29T05:43:11;8.80;95.70
37204;DHT22;23098;48.054;10.636;2022-12-29T05:45:36;8.60;96.00
37204;DHT22;23098;48.054;10.636;2022-12-29T05:48:02;8.60;96.00
37204;DHT22;23098;48.054;10.636;2022-12-29T05:50:28;8.60;95.90
37204;DHT22;23098;48.054;10.636;2022-12-29T05:52:53;8.70;95.60
37204;DHT22;23098;48.054;10.636;2022-12-29T05:55:19;8.70;95.70
37204;DHT22;23098;48.054;10.636;2022-12-29T05:57:44;8.80;95.80
37204;DHT22;23098;48.054;10.636;2022-12-29T06:00:10;8.80;96.00
37204;DHT22;23098;48.054;10.636;2022-12-29T06:02:36;8.90;95.80
37204;DHT22;23098;48.054;10.636;2022-12-29T06:05:01;8.80;96.00
37204;DHT22;23098;48.054;10.636;2022-12-29T06:07:27;8.80;96.00
37204;DHT22;23098;48.054;10.636;2022-12-29T06:09:52;8.60;96.50
37204;DHT22;23098;48.054;10.636;2022-12-29T06:12:18;8.50;96.60
37204;DHT22;23098;48.054;10.636;2022-12-29T06:14:43;8.40;96.50
37204;DHT22;23098;48.054;10.636;2022-12-29T06:17:09;8.30;96.50
37204;DHT22;23098;48.054;10.636;2022-12-29T06:19:35;8.20;96.80
37204;DHT22;23098;48.054;10.636;2022-12-29T06:22:00;8.10;97.00
37204;DHT22;23098;48.054;10.636;2022-12-29T06:24:26;7.90;96.90
37204;DHT22;23098;48.054;10.636;2022-12-29T06:26:51;7.90;96.80
37204;DHT22;23098;48.054;10.636;2022-12-29T06:29:16;7.80;96.80
37204;DHT22;23098;48.054;10.636;2022-12-29T06:31:44;7.80;96.70
37204;DHT22;23098;48.054;10.636;2022-12-29T06:34:11;8.20;96.40
37204;DHT22;23098;48.054;10.636;2022-12-29T06:36:37;8.40;96.60
37204;DHT22;23098;48.054;10.636;2022-12-29T06:39:03;8.60;96.80
37204;DHT22;23098;48.054;10.636;2022-12-29T06:41:28;8.60;96.90
37204;DHT22;23098;48.054;10.636;2022-12-29T06:43:54;8.50;96.90
37204;DHT22;23098;48.054;10.636;2022-12-29T06:46:19;8.40;97.10
37204;DHT22;23098;48.054;10.636;2022-12-29T06:48:44;8.30;97.30
37204;DHT22;23098;48.054;10.636;2022-12-29T06:51:10;8.30;97.10
37204;DHT22;23098;48.054;10.636;2022-12-29T06:53:35;8.30;97.10
37204;DHT22;23098;48.054;10.636;2022-12-29T06:56:01;8.30;97.00
37204;DHT22;23098;48.054;10.636;2022-12-29T06:58:26;8.30;96.80
37204;DHT22;23098;48.054;10.636;2022-12-29T07:00:52;8.30;96.60
37204;DHT22;23098;48.054;10.636;2022-12-29T07:03:17;8.40;96.30
37204;DHT22;23098;48.054;10.636;2022-12-29T07:05:43;8.40;96.50
37204;DHT22;23098;48.054;10.636;2022-12-29T07:08:08;8.40;96.60
37204;DHT22;23098;48.054;10.636;2022-12-29T07:10:34;8.50;96.70
37204;DHT22;23098;48.054;10.636;2022-12-29T07:12:59;8.70;97.00
37204;DHT22;23098;48.054;10.636;2022-12-29T07:15:25;8.80;96.90
37204;DHT22;23098;48.054;10.636;2022-12-29T07:17:50;9.00;97.20
37204;DHT22;23098;48.054;10.636;2022-12-29T07:20:16;8.90;97.30
37204;DHT22;23098;48.054;10.636;2022-12-29T07:22:42;8.90;97.70
37204;DHT22;23098;48.054;10.636;2022-12-29T07:25:08;8.90;97.80
37204;DHT22;23098;48.054;10.636;2022-12-29T07:27:33;9.00;98.00
37204;DHT22;23098;48.054;10.636;2022-12-29T07:29:59;9.00;98.30
37204;DHT22;23098;48.054;10.636;2022-12-29T07:32:24;9.00;98.20
37204;DHT22;23098;48.054;10.636;2022-12-29T07:34:50;9.00;98.30
37204;DHT22;23098;48.054;10.636;2022-12-29T07:37:15;9.00;98.40
37204;DHT22;23098;48.054;10.636;2022-12-29T07:39:41;9.00;98.30
37204;DHT22;23098;48.054;10.636;2022-12-29T07:42:07;8.90;98.50
37204;DHT22;23098;48.054;10.636;2022-12-29T07:44:32;8.80;98.10
37204;DHT22;23098;48.054;10.636;2022-12-29T07:46:58;8.80;98.00
37204;DHT22;23098;48.054;10.636;2022-12-29T07:49:23;8.90;97.50
37204;DHT22;23098;48.054;10.636;2022-12-29T07:51:49;9.00;97.20
37204;DHT22;23098;48.054;10.636;2022-12-29T07:54:14;9.00;97.60
37204;DHT22;23098;48.054;10.636;2022-12-29T07:56:43;9.10;97.40
37204;DHT22;23098;48.054;10.636;2022-12-29T07:59:09;9.10;97.60
37204;DHT22;23098;48.054;10.636;2022-12-29T08:01:34;9.10;97.50
37204;DHT22;23098;48.054;10.636;2022-12-29T08:04:00;9.20;97.50
37204;DHT22;23098;48.054;10.636;2022-12-29T08:06:25;9.30;97.20
37204;DHT22;23098;48.054;10.636;2022-12-29T08:08:51;9.20;97.70
37204;DHT22;23098;48.054;10.636;2022-12-29T08:11:16;9.30;97.80
37204;DHT22;23098;48.054;10.636;2022-12-29T08:13:42;9.40;97.60
37204;DHT22;23098;48.054;10.636;2022-12-29T08:16:07;9.50;97.50
37204;DHT22;23098;48.054;10.636;2022-12-29T08:18:33;9.50;97.40
37204;DHT22;23098;48.054;10.636;2022-12-29T08:21:04;9.50;97.30
37204;DHT22;23098;48.054;10.636;2022-12-29T08:23:31;9.60;97.00
37204;DHT22;23098;48.054;10.636;2022-12-29T08:26:01;9.70;97.10
37204;DHT22;23098;48.054;10.636;2022-12-29T08:28:27;9.70;97.40
37204;DHT22;23098;48.054;10.636;2022-12-29T08:30:53;9.90;97.40
37204;DHT22;23098;48.054;10.636;2022-12-29T08:33:19;10.10;96.80
37204;DHT22;23098;48.054;10.636;2022-12-29T08:35:45;10.20;96.70
37204;DHT22;23098;48.054;10.636;2022-12-29T08:38:10;10.20;96.60
37204;DHT22;23098;48.054;10.636;2022-12-29T08:40:37;10.30;96.30
37204;DHT22;23098;48.054;10.636;2022-12-29T08:43:02;10.40;96.70
37204;DHT22;23098;48.054;10.636;2022-12-29T08:45:28;10.50;96.90
37204;DHT22;23098;48.054;10.636;2022-12-29T08:47:53;10.60;96.70
37204;DHT22;23098;48.054;10.636;2022-12-29T08:50:19;10.60;96.30
37204;DHT22;23098;48.054;10.636;2022-12-29T08:52:44;10.60;96.50
37204;DHT22;23098;48.054;10.636;2022-12-29T08:55:10;10.60;96.30
37204;DHT22;23098;48.054;10.636;2022-12-29T08:57:36;10.50;96.40
37204;DHT22;23098;48.054;10.636;2022-12-29T09:00:03;10.50;96.50
37204;DHT22;23098;48.054;10.636;2022-12-29T09:02:28;10.50;96.80
37204;DHT22;23098;48.054;10.636;2022-12-29T09:04:54;10.50;96.40
37204;DHT22;23098;48.054;10.636;2022-12-29T09:07:19;10.40;96.50
37204;DHT22;23098;48.054;10.636;2022-12-29T09:09:45;10.40;96.30
37204;DHT22;23098;48.054;10.636;2022-12-29T09:12:10;10.40;96.30
37204;DHT22;23098;48.054;10.636;2022-12-29T09:14:36;10.30;96.40
37204;DHT22;23098;48.054;10.636;2022-12-29T09:17:01;10.30;95.90
37204;DHT22;23098;48.054;10.636;2022-12-29T09:19:45;10.30;95.90
37204;DHT22;23098;48.054;10.636;2022-12-29T09:22:11;10.30;95.90
37204;DHT22;23098;48.054;10.636;2022-12-29T09:24:36;10.10;96.30
37204;DHT22;23098;48.054;10.636;2022-12-29T09:27:02;10.10;95.80
37204;DHT22;23098;48.054;10.636;2022-12-29T09:29:27;10.10;95.20
37204;DHT22;23098;48.054;10.636;2022-12-29T09:31:53;10.20;95.10
37204;DHT22;23098;48.054;10.636;2022-12-29T09:34:18;10.20;94.90
37204;DHT22;23098;48.054;10.636;2022-12-29T09:36:44;10.20;94.60
37204;DHT22;23098;48.054;10.636;2022-12-29T09:39:09;10.30;94.20
37204;DHT22;23098;48.054;10.636;2022-12-29T09:42:07;10.30;93.80
37204;DHT22;23098;48.054;10.636;2022-12-29T09:47:19;10.50;94.80
37204;DHT22;23098;48.054;10.636;2022-12-29T09:50:01;10.70;94.40
37204;DHT22;23098;48.054;10.636;2022-12-29T09:52:36;10.70;95.00
37204;DHT22;23098;48.054;10.636;2022-12-29T09:55:18;10.70;94.90
37204;DHT22;23098;48.054;10.636;2022-12-29T09:57:54;10.80;94.60
37204;DHT22;23098;48.054;10.636;2022-12-29T10:00:23;10.90;95.10
37204;DHT22;23098;48.054;10.636;2022-12-29T10:02:59;10.90;95.20
37204;DHT22;23098;48.054;10.636;2022-12-29T10:05:35;11.00;95.20
37204;DHT22;23098;48.054;10.636;2022-12-29T10:10:56;11.00;95.50
37204;DHT22;23098;48.054;10.636;2022-12-29T10:13:25;11.10;95.40
37204;DHT22;23098;48.054;10.636;2022-12-29T10:16:05;11.10;95.40
37204;DHT22;23098;48.054;10.636;2022-12-29T10:21:30;11.20;95.40
37204;DHT22;23098;48.054;10.636;2022-12-29T10:23:59;11.20;95.80
37204;DHT22;23098;48.054;10.636;2022-12-29T10:26:30;11.10;95.80
37204;DHT22;23098;48.054;10.636;2022-12-29T10:29:02;11.10;96.10
37204;DHT22;23098;48.054;10.636;2022-12-29T10:31:35;11.10;95.80
37204;DHT22;23098;48.054;10.636;2022-12-29T10:34:19;11.20;95.10
37204;DHT22;23098;48.054;10.636;2022-12-29T10:36:48;11.30;94.90
37204;DHT22;23098;48.054;10.636;2022-12-29T10:41:51;11.50;94.60
37204;DHT22;23098;48.054;10.636;2022-12-29T10:44:19;11.60;94.60
37204;DHT22;23098;48.054;10.636;2022-12-29T10:46:58;11.70;93.90
37204;DHT22;23098;48.054;10.636;2022-12-29T10:49:26;11.70;94.40
37204;DHT22;23098;48.054;10.636;2022-12-29T10:51:55;11.60;94.40
37204;DHT22;23098;48.054;10.636;2022-12-29T10:56:59;11.70;93.80
37204;DHT22;23098;48.054;10.636;2022-12-29T10:59:30;12.00;93.80
37204;DHT22;23098;48.054;10.636;2022-12-29T11:04:52;12.20;93.80
37204;DHT22;23098;48.054;10.636;2022-12-29T11:07:22;12.30;93.70
37204;DHT22;23098;48.054;10.636;2022-12-29T11:09:47;12.40;93.50
37204;DHT22;23098;48.054;10.636;2022-12-29T11:14:45;12.80;93.30
37204;DHT22;23098;48.054;10.636;2022-12-29T11:17:16;12.90;93.70
37204;DHT22;23098;48.054;10.636;2022-12-29T11:19:42;13.10;93.30
37204;DHT22;23098;48.054;10.636;2022-12-29T11:22:24;13.30;93.30
37204;DHT22;23098;48.054;10.636;2022-12-29T11:24:52;13.40;93.20
37204;DHT22;23098;48.054;10.636;2022-12-29T11:27:24;13.40;92.90
37204;DHT22;23098;48.054;10.636;2022-12-29T11:29:52;13.60;93.50
37204;DHT22;23098;48.054;10.636;2022-12-29T11:32:24;13.90;93.50
37204;DHT22;23098;48.054;10.636;2022-12-29T11:34:50;13.80;93.60
37204;DHT22;23098;48.054;10.636;2022-12-29T11:37:37;13.60;93.30
37204;DHT22;23098;48.054;10.636;2022-12-29T11:40:06;13.60;93.60
37204;DHT22;23098;48.054;10.636;2022-12-29T11:45:24;13.40;93.80
37204;DHT22;23098;48.054;10.636;2022-12-29T11:47:57;13.50;94.00
37204;DHT22;23098;48.054;10.636;2022-12-29T11:50:26;13.60;93.70
37204;DHT22;23098;48.054;10.636;2022-12-29T11:52:59;13.60;94.00
37204;DHT22;23098;48.054;10.636;2022-12-29T11:55:27;13.50;93.80
37204;DHT22;23098;48.054;10.636;2022-12-29T11:57:55;13.40;94.00
37204;DHT22;23098;48.054;10.636;2022-12-29T12:00:24;13.20;94.10
37204;DHT22;23098;48.054;10.636;2022-12-29T12:03:00;13.20;94.20
37204;DHT22;23098;48.054;10.636;2022-12-29T12:05:49;13.30;93.60
37204;DHT22;23098;48.054;10.636;2022-12-29T12:11:04;12.90;94.20
37204;DHT22;23098;48.054;10.636;2022-12-29T12:13:36;12.80;94.70
37204;DHT22;23098;48.054;10.636;2022-12-29T12:16:05;12.70;94.30
37204;DHT22;23098;48.054;10.636;2022-12-29T12:18:43;12.80;94.70
37204;DHT22;23098;48.054;10.636;2022-12-29T12:21:35;13.10;95.00
37204;DHT22;23098;48.054;10.636;2022-12-29T12:26:54;12.90;94.50
37204;DHT22;23098;48.054;10.636;2022-12-29T12:30:09;12.80;94.30
37204;DHT22;23098;48.054;10.636;2022-12-29T12:32:26;12.80;94.40
37204;DHT22;23098;48.054;10.636;2022-12-29T12:34:53;12.80;94.80
37204;DHT22;23098;48.054;10.636;2022-12-29T12:46:23;12.70;94.40
37204;DHT22;23098;48.054;10.636;2022-12-29T12:52:05;12.60;94.30
37204;DHT22;23098;48.054;10.636;2022-12-29T13:00:33;12.40;95.20
37204;DHT22;23098;48.054;10.636;2022-12-29T13:03:29;12.50;95.00
37204;DHT22;23098;48.054;10.636;2022-12-29T13:06:04;12.40;95.00
37204;DHT22;23098;48.054;10.636;2022-12-29T13:08:44;12.40;95.20
37204;DHT22;23098;48.054;10.636;2022-12-29T13:11:28;12.40;95.00
37204;DHT22;23098;48.054;10.636;2022-12-29T13:16:57;12.30;95.50
37204;DHT22;23098;48.054;10.636;2022-12-29T13:19:59;12.20;95.50
37204;DHT22;23098;48.054;10.636;2022-12-29T13:31:11;12.00;96.00
37204;DHT22;23098;48.054;10.636;2022-12-29T13:33:56;12.00;95.90
37204;DHT22;23098;48.054;10.636;2022-12-29T13:39:03;11.90;96.30
37204;DHT22;23098;48.054;10.636;2022-12-29T13:41:39;11.90;96.30
37204;DHT22;23098;48.054;10.636;2022-12-29T13:44:11;11.80;96.50
37204;DHT22;23098;48.054;10.636;2022-12-29T13:46:43;11.80;96.40
37204;DHT22;23098;48.054;10.636;2022-12-29T13:49:16;11.70;96.50
37204;DHT22;23098;48.054;10.636;2022-12-29T13:51:48;11.70;96.40
37204;DHT22;23098;48.054;10.636;2022-12-29T13:54:29;11.60;96.30
37204;DHT22;23098;48.054;10.636;2022-12-29T14:00:15;11.50;96.30
37204;DHT22;23098;48.054;10.636;2022-12-29T14:07:56;11.30;96.60
37204;DHT22;23098;48.054;10.636;2022-12-29T14:10:47;11.20;96.80
37204;DHT22;23098;48.054;10.636;2022-12-29T14:13:21;11.20;96.70
37204;DHT22;23098;48.054;10.636;2022-12-29T14:15:55;11.10;96.50
37204;DHT22;23098;48.054;10.636;2022-12-29T14:18:29;11.10;97.00
37204;DHT22;23098;48.054;10.636;2022-12-29T14:21:05;11.00;97.00
37204;DHT22;23098;48.054;10.636;2022-12-29T14:28:32;10.90;96.80
37204;DHT22;23098;48.054;10.636;2022-12-29T14:31:07;11.00;96.80
37204;DHT22;23098;48.054;10.636;2022-12-29T14:36:35;11.00;97.10
37204;DHT22;23098;48.054;10.636;2022-12-29T14:39:02;11.00;97.30
37204;DHT22;23098;48.054;10.636;2022-12-29T14:41:35;10.90;97.30
37204;DHT22;23098;48.054;10.636;2022-12-29T14:44:15;10.90;97.40
37204;DHT22;23098;48.054;10.636;2022-12-29T14:46:58;10.90;97.50
37204;DHT22;23098;48.054;10.636;2022-12-29T14:49:31;10.80;97.80
37204;DHT22;23098;48.054;10.636;2022-12-29T14:52:20;10.70;98.30
37204;DHT22;23098;48.054;10.636;2022-12-29T14:57:59;10.70;98.50
37204;DHT22;23098;48.054;10.636;2022-12-29T15:00:35;10.70;98.40
37204;DHT22;23098;48.054;10.636;2022-12-29T15:03:27;10.80;98.20
37204;DHT22;23098;48.054;10.636;2022-12-29T15:06:11;10.70;98.60
37204;DHT22;23098;48.054;10.636;2022-12-29T15:09:23;10.70;98.60
37204;DHT22;23098;48.054;10.636;2022-12-29T15:14:31;10.60;98.70
37204;DHT22;23098;48.054;10.636;2022-12-29T15:16:58;10.70;98.70
37204;DHT22;23098;48.054;10.636;2022-12-29T15:19:25;10.70;98.70
37204;DHT22;23098;48.054;10.636;2022-12-29T15:21:52;10.70;98.70
37204;DHT22;23098;48.054;10.636;2022-12-29T15:24:19;10.70;98.70
37204;DHT22;23098;48.054;10.636;2022-12-29T15:26:50;10.80;98.70
37204;DHT22;23098;48.054;10.636;2022-12-29T15:29:40;10.80;98.90
37204;DHT22;23098;48.054;10.636;2022-12-29T15:32:19;10.80;98.90
37204;DHT22;23098;48.054;10.636;2022-12-29T15:34:47;10.70;99.00
37204;DHT22;23098;48.054;10.636;2022-12-29T15:37:22;10.70;99.20
37204;DHT22;23098;48.054;10.636;2022-12-29T15:39:48;10.70;99.40
37204;DHT22;23098;48.054;10.636;2022-12-29T15:45:11;10.70;99.60
37204;DHT22;23098;48.054;10.636;2022-12-29T15:47:38;10.60;99.70
37204;DHT22;23098;48.054;10.636;2022-12-29T15:50:14;10.60;99.90
37204;DHT22;23098;48.054;10.636;2022-12-29T15:52:40;10.60;99.90
37204;DHT22;23098;48.054;10.636;2022-12-29T15:57:56;10.60;99.90
37204;DHT22;23098;48.054;10.636;2022-12-29T16:00:34;10.60;99.90
37204;DHT22;23098;48.054;10.636;2022-12-29T16:03:03;10.60;99.90
37204;DHT22;23098;48.054;10.636;2022-12-29T16:05:37;10.50;99.90
37204;DHT22;23098;48.054;10.636;2022-12-29T16:08:18;10.50;99.90
37204;DHT22;23098;48.054;10.636;2022-12-29T16:10:46;10.50;99.90
37204;DHT22;23098;48.054;10.636;2022-12-29T16:15:47;10.20;99.90
37204;DHT22;23098;48.054;10.636;2022-12-29T16:18:26;10.10;99.90
37204;DHT22;23098;48.054;10.636;2022-12-29T16:20:54;10.00;99.90
37204;DHT22;23098;48.054;10.636;2022-12-29T16:23:26;9.90;99.90
37204;DHT22;23098;48.054;10.636;2022-12-29T16:25:54;9.90;99.90
37204;DHT22;23098;48.054;10.636;2022-12-29T16:28:22;9.90;99.90
37204;DHT22;23098;48.054;10.636;2022-12-29T16:30:59;9.80;99.90
37204;DHT22;23098;48.054;10.636;2022-12-29T16:33:52;9.70;99.90
37204;DHT22;23098;48.054;10.636;2022-12-29T16:36:29;9.70;99.90
37204;DHT22;23098;48.054;10.636;2022-12-29T16:41:50;9.60;99.90
37204;DHT22;23098;48.054;10.636;2022-12-29T16:44:29;9.70;99.90
37204;DHT22;23098;48.054;10.636;2022-12-29T16:47:16;9.60;99.90
37204;DHT22;23098;48.054;10.636;2022-12-29T16:49:47;9.60;99.90
37204;DHT22;23098;48.054;10.636;2022-12-29T16:52:34;9.50;99.90
37204;DHT22;23098;48.054;10.636;2022-12-29T16:55:01;9.60;99.90
37204;DHT22;23098;48.054;10.636;2022-12-29T16:57:31;9.70;99.90
37204;DHT22;23098;48.054;10.636;2022-12-29T17:00:02;9.70;99.90
37204;DHT22;23098;48.054;10.636;2022-12-29T17:02:30;9.80;99.90
37204;DHT22;23098;48.054;10.636;2022-12-29T17:04:56;9.80;99.90
37204;DHT22;23098;48.054;10.636;2022-12-29T17:07:24;9.80;99.90
37204;DHT22;23098;48.054;10.636;2022-12-29T17:09:50;10.00;99.90
37204;DHT22;23098;48.054;10.636;2022-12-29T17:12:21;10.00;99.90
37204;DHT22;23098;48.054;10.636;2022-12-29T17:15:03;10.00;99.90
37204;DHT22;23098;48.054;10.636;2022-12-29T17:20:20;9.80;99.90
37204;DHT22;23098;48.054;10.636;2022-12-29T17:22:46;9.80;99.90
37204;DHT22;23098;48.054;10.636;2022-12-29T17:25:14;9.70;99.90
37204;DHT22;23098;48.054;10.636;2022-12-29T17:27:46;9.70;99.90
37204;DHT22;23098;48.054;10.636;2022-12-29T17:30:14;9.70;99.90
37204;DHT22;23098;48.054;10.636;2022-12-29T17:32:42;9.60;99.90
37204;DHT22;23098;48.054;10.636;2022-12-29T17:35:16;9.70;99.90
37204;DHT22;23098;48.054;10.636;2022-12-29T17:37:42;9.70;99.90
37204;DHT22;23098;48.054;10.636;2022-12-29T17:40:14;9.70;99.90
37204;DHT22;23098;48.054;10.636;2022-12-29T17:42:43;9.60;99.90
37204;DHT22;23098;48.054;10.636;2022-12-29T17:45:17;9.70;99.90
37204;DHT22;23098;48.054;10.636;2022-12-29T17:47:44;9.70;99.90